Terminal Aerodrome Forecast
Issued by NWS

Home | Current Version | Previous Version | Graphics & Text | Print | Product List | Glossary On
Versions: 1 2 3 4 5 6 7 8 9 10 11 12 13 14
000
FTUS42 KMHX 171731
TAFPGV
TAF
KPGV 171731Z 1718/1818 27011G18KT P6SM SCT050
     FM172300 22005KT P6SM SKC
     FM180700 VRB04KT P6SM BKN060
     FM181300 22008KT P6SM SCT050
      AMD LTD TO CLD VIS AND WIND=

USA.gov is the U.S. government's official web portal to all federal, state and local government web resources and services.